Yangon, Burma
Current Conditions -  °F | °C
As of 12:00 AM on Sunday 23 Nov 2014 (Local Time) from VYYY Reporting Station
Clear Clear  
Wind Chill: 25°   Ceiling: Unl
Heat Index: 26°   Visibility: 4mi
Dew Point: 23°   Wind: 5mph
Humidity: 89%   Direction: 270°W
Pressure: 29.88"   Gusts: NA
Location:  16.79°N, 96.15°E
Report Text: VYYY 221800Z 27004KT 7000 N S C 25/23 Q1012
Loading
Personal Weather Stations






























Interactive Weather Map New forecast layout! Learn more

10-Day Weather Forecast

Advertisements
Track Severe Weather on mobile